sensor_id;sensor_type;location;lat;lon;timestamp;temperature;humidity
3202;DHT22;34843;48.744;8.958;2023-04-09T00:02:22;3.80;99.90
3202;DHT22;34843;48.744;8.958;2023-04-09T00:04:47;3.80;99.90
3202;DHT22;34843;48.744;8.958;2023-04-09T00:07:13;3.80;99.90
3202;DHT22;34843;48.744;8.958;2023-04-09T00:09:38;3.70;99.90
3202;DHT22;34843;48.744;8.958;2023-04-09T00:12:04;3.70;99.90
3202;DHT22;34843;48.744;8.958;2023-04-09T00:14:30;3.80;99.90
3202;DHT22;34843;48.744;8.958;2023-04-09T00:16:55;3.80;99.90
3202;DHT22;34843;48.744;8.958;2023-04-09T00:19:21;3.90;99.90
3202;DHT22;34843;48.744;8.958;2023-04-09T00:21:46;3.90;99.90
3202;DHT22;34843;48.744;8.958;2023-04-09T00:24:12;3.90;99.90
3202;DHT22;34843;48.744;8.958;2023-04-09T00:26:38;4.00;99.90
3202;DHT22;34843;48.744;8.958;2023-04-09T00:29:04;4.00;99.90
3202;DHT22;34843;48.744;8.958;2023-04-09T00:31:30;3.90;99.90
3202;DHT22;34843;48.744;8.958;2023-04-09T00:33:55;3.90;99.90
3202;DHT22;34843;48.744;8.958;2023-04-09T00:36:21;3.80;99.90
3202;DHT22;34843;48.744;8.958;2023-04-09T00:38:46;3.90;99.90
3202;DHT22;34843;48.744;8.958;2023-04-09T00:41:14;3.90;99.90
3202;DHT22;34843;48.744;8.958;2023-04-09T00:43:39;3.90;99.90
3202;DHT22;34843;48.744;8.958;2023-04-09T00:46:05;3.90;99.90
3202;DHT22;34843;48.744;8.958;2023-04-09T00:48:30;3.90;99.90
3202;DHT22;34843;48.744;8.958;2023-04-09T00:50:56;4.10;99.90
3202;DHT22;34843;48.744;8.958;2023-04-09T00:53:22;4.00;99.90
3202;DHT22;34843;48.744;8.958;2023-04-09T00:55:47;4.00;99.90
3202;DHT22;34843;48.744;8.958;2023-04-09T00:58:13;3.90;99.90
3202;DHT22;34843;48.744;8.958;2023-04-09T01:00:39;3.90;99.90
3202;DHT22;34843;48.744;8.958;2023-04-09T01:03:05;3.80;99.90
3202;DHT22;34843;48.744;8.958;2023-04-09T01:06:08;3.90;99.90
3202;DHT22;34843;48.744;8.958;2023-04-09T01:08:55;3.90;99.90
3202;DHT22;34843;48.744;8.958;2023-04-09T01:11:37;3.90;99.90
3202;DHT22;34843;48.744;8.958;2023-04-09T01:14:20;4.00;99.90
3202;DHT22;34843;48.744;8.958;2023-04-09T01:16:52;4.00;99.90
3202;DHT22;34843;48.744;8.958;2023-04-09T01:22:13;4.20;99.90
3202;DHT22;34843;48.744;8.958;2023-04-09T01:30:30;4.30;99.90
3202;DHT22;34843;48.744;8.958;2023-04-09T01:32:57;4.20;99.90
3202;DHT22;34843;48.744;8.958;2023-04-09T01:35:24;4.30;99.90
3202;DHT22;34843;48.744;8.958;2023-04-09T01:37:51;4.30;99.90
3202;DHT22;34843;48.744;8.958;2023-04-09T01:40:17;4.40;99.90
3202;DHT22;34843;48.744;8.958;2023-04-09T01:42:43;4.50;99.90
3202;DHT22;34843;48.744;8.958;2023-04-09T01:45:10;4.50;99.90
3202;DHT22;34843;48.744;8.958;2023-04-09T01:47:36;4.60;99.90
3202;DHT22;34843;48.744;8.958;2023-04-09T01:50:02;4.60;99.90
3202;DHT22;34843;48.744;8.958;2023-04-09T01:52:28;4.60;99.90
3202;DHT22;34843;48.744;8.958;2023-04-09T01:54:53;4.50;99.90
3202;DHT22;34843;48.744;8.958;2023-04-09T01:57:19;4.60;99.90
3202;DHT22;34843;48.744;8.958;2023-04-09T01:59:45;4.50;99.90
3202;DHT22;34843;48.744;8.958;2023-04-09T02:02:24;4.50;99.90
3202;DHT22;34843;48.744;8.958;2023-04-09T02:04:53;4.60;99.90
3202;DHT22;34843;48.744;8.958;2023-04-09T02:07:31;4.50;99.90
3202;DHT22;34843;48.744;8.958;2023-04-09T02:10:00;4.50;99.90
3202;DHT22;34843;48.744;8.958;2023-04-09T02:12:28;4.40;99.90
3202;DHT22;34843;48.744;8.958;2023-04-09T02:14:55;4.40;99.90
3202;DHT22;34843;48.744;8.958;2023-04-09T02:17:22;4.40;99.90
3202;DHT22;34843;48.744;8.958;2023-04-09T02:19:47;4.50;99.90
3202;DHT22;34843;48.744;8.958;2023-04-09T02:22:14;4.40;99.90
3202;DHT22;34843;48.744;8.958;2023-04-09T02:24:40;4.40;99.90
3202;DHT22;34843;48.744;8.958;2023-04-09T02:27:06;4.30;99.90
3202;DHT22;34843;48.744;8.958;2023-04-09T02:29:32;4.30;99.90
3202;DHT22;34843;48.744;8.958;2023-04-09T02:31:58;4.40;99.90
3202;DHT22;34843;48.744;8.958;2023-04-09T02:34:23;4.30;99.90
3202;DHT22;34843;48.744;8.958;2023-04-09T02:36:49;4.30;99.90
3202;DHT22;34843;48.744;8.958;2023-04-09T02:39:15;4.30;99.90
3202;DHT22;34843;48.744;8.958;2023-04-09T02:41:40;4.20;99.90
3202;DHT22;34843;48.744;8.958;2023-04-09T02:44:06;4.20;99.90
3202;DHT22;34843;48.744;8.958;2023-04-09T02:46:31;4.20;99.90
3202;DHT22;34843;48.744;8.958;2023-04-09T02:48:57;4.20;99.90
3202;DHT22;34843;48.744;8.958;2023-04-09T02:51:22;4.30;99.90
3202;DHT22;34843;48.744;8.958;2023-04-09T02:53:48;4.30;99.90
3202;DHT22;34843;48.744;8.958;2023-04-09T02:56:13;4.40;99.90
3202;DHT22;34843;48.744;8.958;2023-04-09T02:58:39;4.40;99.90
3202;DHT22;34843;48.744;8.958;2023-04-09T03:01:04;4.40;99.90
3202;DHT22;34843;48.744;8.958;2023-04-09T03:03:30;4.40;99.90
3202;DHT22;34843;48.744;8.958;2023-04-09T03:05:56;4.40;99.90
3202;DHT22;34843;48.744;8.958;2023-04-09T03:08:22;4.50;99.90
3202;DHT22;34843;48.744;8.958;2023-04-09T03:10:47;4.50;99.90
3202;DHT22;34843;48.744;8.958;2023-04-09T03:13:13;4.50;99.90
3202;DHT22;34843;48.744;8.958;2023-04-09T03:15:38;4.50;99.90
3202;DHT22;34843;48.744;8.958;2023-04-09T03:18:04;4.50;99.90
3202;DHT22;34843;48.744;8.958;2023-04-09T03:20:30;4.40;99.90
3202;DHT22;34843;48.744;8.958;2023-04-09T03:22:55;4.40;99.90
3202;DHT22;34843;48.744;8.958;2023-04-09T03:25:21;4.30;99.90
3202;DHT22;34843;48.744;8.958;2023-04-09T03:27:46;4.30;99.90
3202;DHT22;34843;48.744;8.958;2023-04-09T03:30:12;4.30;99.90
3202;DHT22;34843;48.744;8.958;2023-04-09T03:32:37;4.30;99.90
3202;DHT22;34843;48.744;8.958;2023-04-09T03:35:03;4.20;99.90
3202;DHT22;34843;48.744;8.958;2023-04-09T03:37:29;4.10;99.90
3202;DHT22;34843;48.744;8.958;2023-04-09T03:39:54;4.00;99.90
3202;DHT22;34843;48.744;8.958;2023-04-09T03:42:20;4.00;99.90
3202;DHT22;34843;48.744;8.958;2023-04-09T03:44:45;3.90;99.90
3202;DHT22;34843;48.744;8.958;2023-04-09T03:47:11;3.90;99.90
3202;DHT22;34843;48.744;8.958;2023-04-09T03:49:36;3.70;99.90
3202;DHT22;34843;48.744;8.958;2023-04-09T03:52:02;3.70;99.90
3202;DHT22;34843;48.744;8.958;2023-04-09T03:54:28;3.60;99.90
3202;DHT22;34843;48.744;8.958;2023-04-09T03:56:54;3.70;99.90
3202;DHT22;34843;48.744;8.958;2023-04-09T03:59:20;3.60;99.90
3202;DHT22;34843;48.744;8.958;2023-04-09T04:01:46;3.60;99.90
3202;DHT22;34843;48.744;8.958;2023-04-09T04:04:12;3.60;99.90
3202;DHT22;34843;48.744;8.958;2023-04-09T04:06:38;3.60;99.90
3202;DHT22;34843;48.744;8.958;2023-04-09T04:09:03;3.50;99.90
3202;DHT22;34843;48.744;8.958;2023-04-09T04:11:29;3.60;99.90
3202;DHT22;34843;48.744;8.958;2023-04-09T04:13:55;3.60;99.90
3202;DHT22;34843;48.744;8.958;2023-04-09T04:16:20;3.60;99.90
3202;DHT22;34843;48.744;8.958;2023-04-09T04:18:46;3.70;99.90
3202;DHT22;34843;48.744;8.958;2023-04-09T04:21:15;3.80;99.90
3202;DHT22;34843;48.744;8.958;2023-04-09T04:23:41;3.90;99.90
3202;DHT22;34843;48.744;8.958;2023-04-09T04:26:10;4.00;99.90
3202;DHT22;34843;48.744;8.958;2023-04-09T04:28:36;4.00;99.90
3202;DHT22;34843;48.744;8.958;2023-04-09T04:31:02;3.90;99.90
3202;DHT22;34843;48.744;8.958;2023-04-09T04:33:31;3.80;99.90
3202;DHT22;34843;48.744;8.958;2023-04-09T04:36:10;3.90;99.90
3202;DHT22;34843;48.744;8.958;2023-04-09T04:38:37;3.80;99.90
3202;DHT22;34843;48.744;8.958;2023-04-09T04:41:03;3.80;99.90
3202;DHT22;34843;48.744;8.958;2023-04-09T04:43:29;3.80;99.90
3202;DHT22;34843;48.744;8.958;2023-04-09T04:45:54;3.80;99.90
3202;DHT22;34843;48.744;8.958;2023-04-09T04:48:20;3.90;99.90
3202;DHT22;34843;48.744;8.958;2023-04-09T04:50:53;3.80;99.90
3202;DHT22;34843;48.744;8.958;2023-04-09T04:53:18;3.80;99.90
3202;DHT22;34843;48.744;8.958;2023-04-09T04:55:44;3.80;99.90
3202;DHT22;34843;48.744;8.958;2023-04-09T04:58:09;3.90;99.90
3202;DHT22;34843;48.744;8.958;2023-04-09T05:00:35;3.90;99.90
3202;DHT22;34843;48.744;8.958;2023-04-09T05:03:00;3.90;99.90
3202;DHT22;34843;48.744;8.958;2023-04-09T05:05:26;3.90;99.90
3202;DHT22;34843;48.744;8.958;2023-04-09T05:07:51;3.90;99.90
3202;DHT22;34843;48.744;8.958;2023-04-09T05:10:17;3.80;99.90
3202;DHT22;34843;48.744;8.958;2023-04-09T05:12:42;3.80;99.90
3202;DHT22;34843;48.744;8.958;2023-04-09T05:15:08;3.90;99.90
3202;DHT22;34843;48.744;8.958;2023-04-09T05:17:33;3.90;99.90
3202;DHT22;34843;48.744;8.958;2023-04-09T05:19:59;4.00;99.90
3202;DHT22;34843;48.744;8.958;2023-04-09T05:22:24;3.80;99.90
3202;DHT22;34843;48.744;8.958;2023-04-09T05:24:50;3.80;99.90
3202;DHT22;34843;48.744;8.958;2023-04-09T05:27:16;3.90;99.90
3202;DHT22;34843;48.744;8.958;2023-04-09T05:29:43;3.80;99.90
3202;DHT22;34843;48.744;8.958;2023-04-09T05:32:09;4.00;99.90
3202;DHT22;34843;48.744;8.958;2023-04-09T05:34:35;4.00;99.90
3202;DHT22;34843;48.744;8.958;2023-04-09T05:37:00;4.10;99.90
3202;DHT22;34843;48.744;8.958;2023-04-09T05:39:26;4.20;99.90
3202;DHT22;34843;48.744;8.958;2023-04-09T05:41:51;4.40;99.90
3202;DHT22;34843;48.744;8.958;2023-04-09T05:44:17;4.60;99.90
3202;DHT22;34843;48.744;8.958;2023-04-09T05:46:43;4.70;99.90
3202;DHT22;34843;48.744;8.958;2023-04-09T05:49:08;4.90;99.90
3202;DHT22;34843;48.744;8.958;2023-04-09T05:51:34;4.90;99.90
3202;DHT22;34843;48.744;8.958;2023-04-09T05:54:00;5.10;99.90
3202;DHT22;34843;48.744;8.958;2023-04-09T05:56:25;5.30;99.90
3202;DHT22;34843;48.744;8.958;2023-04-09T05:58:52;5.40;99.90
3202;DHT22;34843;48.744;8.958;2023-04-09T06:01:18;5.40;99.90
3202;DHT22;34843;48.744;8.958;2023-04-09T06:03:43;5.40;99.90
3202;DHT22;34843;48.744;8.958;2023-04-09T06:06:09;5.40;99.90
3202;DHT22;34843;48.744;8.958;2023-04-09T06:08:35;5.40;99.90
3202;DHT22;34843;48.744;8.958;2023-04-09T06:11:00;5.50;99.90
3202;DHT22;34843;48.744;8.958;2023-04-09T06:13:26;5.80;99.90
3202;DHT22;34843;48.744;8.958;2023-04-09T06:15:51;6.10;99.90
3202;DHT22;34843;48.744;8.958;2023-04-09T06:18:17;6.50;99.90
3202;DHT22;34843;48.744;8.958;2023-04-09T06:20:42;6.80;99.90
3202;DHT22;34843;48.744;8.958;2023-04-09T06:23:08;7.20;99.90
3202;DHT22;34843;48.744;8.958;2023-04-09T06:25:35;7.70;99.90
3202;DHT22;34843;48.744;8.958;2023-04-09T06:28:01;7.60;99.90
3202;DHT22;34843;48.744;8.958;2023-04-09T06:30:27;8.90;99.90
3202;DHT22;34843;48.744;8.958;2023-04-09T06:32:53;10.00;99.90
3202;DHT22;34843;48.744;8.958;2023-04-09T06:35:18;11.00;99.90
3202;DHT22;34843;48.744;8.958;2023-04-09T06:37:44;12.80;99.90
3202;DHT22;34843;48.744;8.958;2023-04-09T06:40:10;15.30;99.90
3202;DHT22;34843;48.744;8.958;2023-04-09T06:42:35;17.10;99.90
3202;DHT22;34843;48.744;8.958;2023-04-09T06:45:02;18.50;99.90
3202;DHT22;34843;48.744;8.958;2023-04-09T06:47:33;19.20;99.90
3202;DHT22;34843;48.744;8.958;2023-04-09T06:49:58;19.80;99.90
3202;DHT22;34843;48.744;8.958;2023-04-09T06:52:24;19.60;99.90
3202;DHT22;34843;48.744;8.958;2023-04-09T06:54:49;20.30;99.90
3202;DHT22;34843;48.744;8.958;2023-04-09T06:57:15;20.50;99.90
3202;DHT22;34843;48.744;8.958;2023-04-09T06:59:40;21.30;99.90
3202;DHT22;34843;48.744;8.958;2023-04-09T07:02:06;22.20;99.90
3202;DHT22;34843;48.744;8.958;2023-04-09T07:04:32;22.80;99.90
3202;DHT22;34843;48.744;8.958;2023-04-09T07:06:57;23.30;99.90
3202;DHT22;34843;48.744;8.958;2023-04-09T07:09:24;22.60;99.90
3202;DHT22;34843;48.744;8.958;2023-04-09T07:11:49;22.40;99.90
3202;DHT22;34843;48.744;8.958;2023-04-09T07:14:15;22.60;99.90
3202;DHT22;34843;48.744;8.958;2023-04-09T07:16:41;23.10;99.90
3202;DHT22;34843;48.744;8.958;2023-04-09T07:19:07;22.40;99.90
3202;DHT22;34843;48.744;8.958;2023-04-09T07:21:32;21.80;99.90
3202;DHT22;34843;48.744;8.958;2023-04-09T07:23:58;21.20;99.90
3202;DHT22;34843;48.744;8.958;2023-04-09T07:26:23;21.40;99.90
3202;DHT22;34843;48.744;8.958;2023-04-09T07:28:49;21.70;99.90
3202;DHT22;34843;48.744;8.958;2023-04-09T07:31:14;22.20;99.90
3202;DHT22;34843;48.744;8.958;2023-04-09T07:33:40;21.80;99.90
3202;DHT22;34843;48.744;8.958;2023-04-09T07:36:06;20.40;99.90
3202;DHT22;34843;48.744;8.958;2023-04-09T07:38:32;19.80;99.90
3202;DHT22;34843;48.744;8.958;2023-04-09T07:40:59;19.70;99.90
3202;DHT22;34843;48.744;8.958;2023-04-09T07:43:24;19.40;99.90
3202;DHT22;34843;48.744;8.958;2023-04-09T07:45:50;18.20;99.90
3202;DHT22;34843;48.744;8.958;2023-04-09T07:48:16;16.20;99.90
3202;DHT22;34843;48.744;8.958;2023-04-09T07:50:42;14.90;99.90
3202;DHT22;34843;48.744;8.958;2023-04-09T07:53:09;13.80;99.90
3202;DHT22;34843;48.744;8.958;2023-04-09T07:55:36;13.20;99.90
3202;DHT22;34843;48.744;8.958;2023-04-09T07:58:01;12.40;99.90
3202;DHT22;34843;48.744;8.958;2023-04-09T08:00:28;11.90;99.90
3202;DHT22;34843;48.744;8.958;2023-04-09T08:02:53;11.50;99.90
3202;DHT22;34843;48.744;8.958;2023-04-09T08:05:19;11.00;99.90
3202;DHT22;34843;48.744;8.958;2023-04-09T08:07:45;10.70;99.90
3202;DHT22;34843;48.744;8.958;2023-04-09T08:10:10;10.70;99.90
3202;DHT22;34843;48.744;8.958;2023-04-09T08:12:39;10.60;99.90
3202;DHT22;34843;48.744;8.958;2023-04-09T08:15:05;10.60;99.90
3202;DHT22;34843;48.744;8.958;2023-04-09T08:17:31;10.60;99.90
3202;DHT22;34843;48.744;8.958;2023-04-09T08:19:56;10.60;99.90
3202;DHT22;34843;48.744;8.958;2023-04-09T08:22:22;10.60;99.90
3202;DHT22;34843;48.744;8.958;2023-04-09T08:24:51;10.60;99.90
3202;DHT22;34843;48.744;8.958;2023-04-09T08:27:17;10.50;99.90
3202;DHT22;34843;48.744;8.958;2023-04-09T08:29:43;10.30;99.90
3202;DHT22;34843;48.744;8.958;2023-04-09T08:32:08;10.30;99.90
3202;DHT22;34843;48.744;8.958;2023-04-09T08:34:34;10.30;99.90
3202;DHT22;34843;48.744;8.958;2023-04-09T08:36:59;10.30;99.90
3202;DHT22;34843;48.744;8.958;2023-04-09T08:39:25;10.40;99.90
3202;DHT22;34843;48.744;8.958;2023-04-09T08:41:51;10.30;99.90
3202;DHT22;34843;48.744;8.958;2023-04-09T08:44:17;10.30;99.90
3202;DHT22;34843;48.744;8.958;2023-04-09T08:46:43;10.20;99.90
3202;DHT22;34843;48.744;8.958;2023-04-09T08:49:09;10.40;99.90
3202;DHT22;34843;48.744;8.958;2023-04-09T08:51:37;10.60;99.90
3202;DHT22;34843;48.744;8.958;2023-04-09T08:54:03;10.80;99.90
3202;DHT22;34843;48.744;8.958;2023-04-09T08:56:29;10.90;99.90
3202;DHT22;34843;48.744;8.958;2023-04-09T08:58:55;11.20;99.90
3202;DHT22;34843;48.744;8.958;2023-04-09T09:01:29;11.40;99.90
3202;DHT22;34843;48.744;8.958;2023-04-09T09:04:05;11.40;99.90
3202;DHT22;34843;48.744;8.958;2023-04-09T09:06:33;11.60;99.90
3202;DHT22;34843;48.744;8.958;2023-04-09T09:09:07;11.50;99.90
3202;DHT22;34843;48.744;8.958;2023-04-09T09:11:34;11.20;99.90
3202;DHT22;34843;48.744;8.958;2023-04-09T09:14:05;11.30;99.90
3202;DHT22;34843;48.744;8.958;2023-04-09T09:16:32;11.30;99.90
3202;DHT22;34843;48.744;8.958;2023-04-09T09:18:59;11.10;99.90
3202;DHT22;34843;48.744;8.958;2023-04-09T09:21:26;11.20;99.90
3202;DHT22;34843;48.744;8.958;2023-04-09T09:23:52;11.30;99.90
3202;DHT22;34843;48.744;8.958;2023-04-09T09:26:22;11.30;99.90
3202;DHT22;34843;48.744;8.958;2023-04-09T09:28:49;11.10;99.90
3202;DHT22;34843;48.744;8.958;2023-04-09T09:31:15;11.00;99.90
3202;DHT22;34843;48.744;8.958;2023-04-09T09:33:41;11.10;99.90
3202;DHT22;34843;48.744;8.958;2023-04-09T09:36:07;11.10;99.90
3202;DHT22;34843;48.744;8.958;2023-04-09T09:38:50;11.20;99.90
3202;DHT22;34843;48.744;8.958;2023-04-09T09:41:16;11.20;99.90
3202;DHT22;34843;48.744;8.958;2023-04-09T09:43:42;11.10;99.90
3202;DHT22;34843;48.744;8.958;2023-04-09T09:46:09;11.20;99.90
3202;DHT22;34843;48.744;8.958;2023-04-09T09:48:35;11.30;99.90
3202;DHT22;34843;48.744;8.958;2023-04-09T09:51:02;11.20;99.90
3202;DHT22;34843;48.744;8.958;2023-04-09T09:53:29;11.20;99.90
3202;DHT22;34843;48.744;8.958;2023-04-09T09:55:58;11.40;99.90
3202;DHT22;34843;48.744;8.958;2023-04-09T09:58:30;11.40;99.90
3202;DHT22;34843;48.744;8.958;2023-04-09T10:00:56;11.40;99.90
3202;DHT22;34843;48.744;8.958;2023-04-09T10:03:26;12.80;99.90
3202;DHT22;34843;48.744;8.958;2023-04-09T10:05:52;11.30;99.90
3202;DHT22;34843;48.744;8.958;2023-04-09T10:08:19;11.20;99.90
3202;DHT22;34843;48.744;8.958;2023-04-09T10:10:46;11.40;99.90
3202;DHT22;34843;48.744;8.958;2023-04-09T10:13:17;11.50;99.90
3202;DHT22;34843;48.744;8.958;2023-04-09T10:15:46;11.60;99.90
3202;DHT22;34843;48.744;8.958;2023-04-09T10:18:13;11.50;99.90
3202;DHT22;34843;48.744;8.958;2023-04-09T10:20:43;11.50;99.90
3202;DHT22;34843;48.744;8.958;2023-04-09T10:23:21;11.70;99.90
3202;DHT22;34843;48.744;8.958;2023-04-09T10:25:48;11.70;99.90
3202;DHT22;34843;48.744;8.958;2023-04-09T10:28:17;11.60;99.90
3202;DHT22;34843;48.744;8.958;2023-04-09T10:30:43;11.70;99.90
3202;DHT22;34843;48.744;8.958;2023-04-09T10:33:10;11.70;99.90
3202;DHT22;34843;48.744;8.958;2023-04-09T10:35:36;11.80;99.90
3202;DHT22;34843;48.744;8.958;2023-04-09T10:38:01;12.10;99.90
3202;DHT22;34843;48.744;8.958;2023-04-09T10:40:27;12.10;99.90
3202;DHT22;34843;48.744;8.958;2023-04-09T10:42:55;12.30;99.90
3202;DHT22;34843;48.744;8.958;2023-04-09T10:45:20;12.30;99.90
3202;DHT22;34843;48.744;8.958;2023-04-09T10:47:49;12.30;99.90
3202;DHT22;34843;48.744;8.958;2023-04-09T10:52:52;12.20;99.90
3202;DHT22;34843;48.744;8.958;2023-04-09T10:55:39;12.20;99.90
3202;DHT22;34843;48.744;8.958;2023-04-09T10:58:09;12.40;99.90
3202;DHT22;34843;48.744;8.958;2023-04-09T11:00:40;12.30;99.90
3202;DHT22;34843;48.744;8.958;2023-04-09T11:03:25;12.20;99.90
3202;DHT22;34843;48.744;8.958;2023-04-09T11:06:02;12.40;99.90
3202;DHT22;34843;48.744;8.958;2023-04-09T11:08:31;12.40;99.90
3202;DHT22;34843;48.744;8.958;2023-04-09T11:10:57;12.20;99.90
3202;DHT22;34843;48.744;8.958;2023-04-09T11:13:24;12.10;99.90
3202;DHT22;34843;48.744;8.958;2023-04-09T11:15:49;12.30;99.90
3202;DHT22;34843;48.744;8.958;2023-04-09T11:18:27;12.70;99.90
3202;DHT22;34843;48.744;8.958;2023-04-09T11:21:00;12.80;99.90
3202;DHT22;34843;48.744;8.958;2023-04-09T11:23:27;12.80;99.90
3202;DHT22;34843;48.744;8.958;2023-04-09T11:25:54;12.90;99.90
3202;DHT22;34843;48.744;8.958;2023-04-09T11:28:19;12.80;99.90
3202;DHT22;34843;48.744;8.958;2023-04-09T11:30:46;12.80;99.90
3202;DHT22;34843;48.744;8.958;2023-04-09T11:33:12;13.00;99.90
3202;DHT22;34843;48.744;8.958;2023-04-09T11:35:37;13.00;99.90
3202;DHT22;34843;48.744;8.958;2023-04-09T11:38:08;13.30;99.90
3202;DHT22;34843;48.744;8.958;2023-04-09T11:40:34;13.50;99.90
3202;DHT22;34843;48.744;8.958;2023-04-09T11:42:59;13.50;99.90
3202;DHT22;34843;48.744;8.958;2023-04-09T11:45:27;13.00;99.90
3202;DHT22;34843;48.744;8.958;2023-04-09T11:47:54;13.00;99.90
3202;DHT22;34843;48.744;8.958;2023-04-09T11:50:20;13.00;99.90
3202;DHT22;34843;48.744;8.958;2023-04-09T11:52:46;13.20;99.90
3202;DHT22;34843;48.744;8.958;2023-04-09T11:55:22;13.00;99.90
3202;DHT22;34843;48.744;8.958;2023-04-09T11:57:51;12.80;99.90
3202;DHT22;34843;48.744;8.958;2023-04-09T12:00:17;12.70;99.90
3202;DHT22;34843;48.744;8.958;2023-04-09T12:02:48;12.50;99.90
3202;DHT22;34843;48.744;8.958;2023-04-09T12:05:22;12.90;99.90
3202;DHT22;34843;48.744;8.958;2023-04-09T12:07:47;13.00;99.90
3202;DHT22;34843;48.744;8.958;2023-04-09T12:10:13;12.70;99.90
3202;DHT22;34843;48.744;8.958;2023-04-09T12:12:46;12.80;99.90
3202;DHT22;34843;48.744;8.958;2023-04-09T12:15:19;12.90;99.90
3202;DHT22;34843;48.744;8.958;2023-04-09T12:17:47;13.20;99.90
3202;DHT22;34843;48.744;8.958;2023-04-09T12:20:12;13.10;99.90
3202;DHT22;34843;48.744;8.958;2023-04-09T12:22:38;13.10;99.90
3202;DHT22;34843;48.744;8.958;2023-04-09T12:25:06;13.20;99.90
3202;DHT22;34843;48.744;8.958;2023-04-09T12:27:32;13.30;99.90
3202;DHT22;34843;48.744;8.958;2023-04-09T12:29:58;13.50;99.90
3202;DHT22;34843;48.744;8.958;2023-04-09T12:32:23;13.70;99.90
3202;DHT22;34843;48.744;8.958;2023-04-09T12:34:49;13.50;99.90
3202;DHT22;34843;48.744;8.958;2023-04-09T12:37:15;13.30;99.90
3202;DHT22;34843;48.744;8.958;2023-04-09T12:39:41;13.10;99.90
3202;DHT22;34843;48.744;8.958;2023-04-09T12:42:06;13.10;99.90
3202;DHT22;34843;48.744;8.958;2023-04-09T12:44:32;13.10;99.90
3202;DHT22;34843;48.744;8.958;2023-04-09T12:46:58;13.30;99.90
3202;DHT22;34843;48.744;8.958;2023-04-09T12:49:23;13.60;99.90
3202;DHT22;34843;48.744;8.958;2023-04-09T12:51:49;13.50;99.90
3202;DHT22;34843;48.744;8.958;2023-04-09T12:54:16;13.40;99.90
3202;DHT22;34843;48.744;8.958;2023-04-09T12:56:41;13.20;99.90
3202;DHT22;34843;48.744;8.958;2023-04-09T12:59:07;12.80;99.90
3202;DHT22;34843;48.744;8.958;2023-04-09T13:01:32;12.50;99.90
3202;DHT22;34843;48.744;8.958;2023-04-09T13:03:58;12.40;99.90
3202;DHT22;34843;48.744;8.958;2023-04-09T13:06:23;12.40;99.90
3202;DHT22;34843;48.744;8.958;2023-04-09T13:08:49;12.40;99.90
3202;DHT22;34843;48.744;8.958;2023-04-09T13:11:14;12.50;99.90
3202;DHT22;34843;48.744;8.958;2023-04-09T13:13:40;12.80;99.90
3202;DHT22;34843;48.744;8.958;2023-04-09T13:16:06;12.90;99.90
3202;DHT22;34843;48.744;8.958;2023-04-09T13:18:32;13.00;99.90
3202;DHT22;34843;48.744;8.958;2023-04-09T13:20:57;13.20;99.90
3202;DHT22;34843;48.744;8.958;2023-04-09T13:23:23;13.30;99.90
3202;DHT22;34843;48.744;8.958;2023-04-09T13:25:48;13.70;99.90
3202;DHT22;34843;48.744;8.958;2023-04-09T13:28:14;13.70;99.90
3202;DHT22;34843;48.744;8.958;2023-04-09T13:30:39;13.60;99.90
3202;DHT22;34843;48.744;8.958;2023-04-09T13:33:05;13.60;99.90
3202;DHT22;34843;48.744;8.958;2023-04-09T13:35:30;13.50;99.90
3202;DHT22;34843;48.744;8.958;2023-04-09T13:37:56;13.60;99.90
3202;DHT22;34843;48.744;8.958;2023-04-09T13:40:22;13.50;99.90
3202;DHT22;34843;48.744;8.958;2023-04-09T13:42:47;13.30;99.90
3202;DHT22;34843;48.744;8.958;2023-04-09T13:45:13;13.40;99.90
3202;DHT22;34843;48.744;8.958;2023-04-09T13:47:38;13.60;99.90
3202;DHT22;34843;48.744;8.958;2023-04-09T13:50:04;14.00;99.90
3202;DHT22;34843;48.744;8.958;2023-04-09T13:52:30;14.40;99.90
3202;DHT22;34843;48.744;8.958;2023-04-09T13:54:56;14.70;99.90
3202;DHT22;34843;48.744;8.958;2023-04-09T13:57:21;14.40;99.90
3202;DHT22;34843;48.744;8.958;2023-04-09T13:59:47;14.10;99.90
3202;DHT22;34843;48.744;8.958;2023-04-09T14:02:13;14.30;99.90
3202;DHT22;34843;48.744;8.958;2023-04-09T14:04:38;14.30;99.90
3202;DHT22;34843;48.744;8.958;2023-04-09T14:07:04;14.40;99.90
3202;DHT22;34843;48.744;8.958;2023-04-09T14:09:30;14.30;99.90
3202;DHT22;34843;48.744;8.958;2023-04-09T14:11:56;14.30;99.90
3202;DHT22;34843;48.744;8.958;2023-04-09T14:14:22;14.60;99.90
3202;DHT22;34843;48.744;8.958;2023-04-09T14:16:47;14.80;99.90
3202;DHT22;34843;48.744;8.958;2023-04-09T14:19:14;15.00;99.90
3202;DHT22;34843;48.744;8.958;2023-04-09T14:21:40;14.80;99.90
3202;DHT22;34843;48.744;8.958;2023-04-09T14:24:05;14.70;99.90
3202;DHT22;34843;48.744;8.958;2023-04-09T14:26:31;14.40;99.90
3202;DHT22;34843;48.744;8.958;2023-04-09T14:28:57;14.20;99.90
3202;DHT22;34843;48.744;8.958;2023-04-09T14:31:22;14.20;99.90
3202;DHT22;34843;48.744;8.958;2023-04-09T14:33:48;14.20;99.90
3202;DHT22;34843;48.744;8.958;2023-04-09T14:36:14;14.30;99.90
3202;DHT22;34843;48.744;8.958;2023-04-09T14:38:40;14.40;99.90
3202;DHT22;34843;48.744;8.958;2023-04-09T14:41:05;14.50;99.90
3202;DHT22;34843;48.744;8.958;2023-04-09T14:43:31;14.10;99.90
3202;DHT22;34843;48.744;8.958;2023-04-09T14:45:56;13.80;99.90
3202;DHT22;34843;48.744;8.958;2023-04-09T14:48:22;13.50;99.90
3202;DHT22;34843;48.744;8.958;2023-04-09T14:50:48;13.30;99.90
3202;DHT22;34843;48.744;8.958;2023-04-09T14:53:16;13.20;99.90
3202;DHT22;34843;48.744;8.958;2023-04-09T14:55:42;13.10;99.90
3202;DHT22;34843;48.744;8.958;2023-04-09T14:58:08;13.00;99.90
3202;DHT22;34843;48.744;8.958;2023-04-09T15:00:33;13.10;99.90
3202;DHT22;34843;48.744;8.958;2023-04-09T15:02:59;13.20;99.90
3202;DHT22;34843;48.744;8.958;2023-04-09T15:05:25;13.20;99.90
3202;DHT22;34843;48.744;8.958;2023-04-09T15:07:51;13.10;99.90
3202;DHT22;34843;48.744;8.958;2023-04-09T15:10:18;13.20;99.90
3202;DHT22;34843;48.744;8.958;2023-04-09T15:12:43;13.20;99.90
3202;DHT22;34843;48.744;8.958;2023-04-09T15:15:09;13.20;99.90
3202;DHT22;34843;48.744;8.958;2023-04-09T15:17:34;13.20;99.90
3202;DHT22;34843;48.744;8.958;2023-04-09T15:20:00;13.20;99.90
3202;DHT22;34843;48.744;8.958;2023-04-09T15:22:26;13.10;99.90
3202;DHT22;34843;48.744;8.958;2023-04-09T15:24:52;13.00;99.90
3202;DHT22;34843;48.744;8.958;2023-04-09T15:27:18;12.90;99.90
3202;DHT22;34843;48.744;8.958;2023-04-09T15:29:44;12.70;99.90
3202;DHT22;34843;48.744;8.958;2023-04-09T15:32:10;12.70;99.90
3202;DHT22;34843;48.744;8.958;2023-04-09T15:34:35;12.70;99.90
3202;DHT22;34843;48.744;8.958;2023-04-09T15:37:01;12.70;99.90
3202;DHT22;34843;48.744;8.958;2023-04-09T15:39:27;12.70;99.90
3202;DHT22;34843;48.744;8.958;2023-04-09T15:41:58;12.70;99.90
3202;DHT22;34843;48.744;8.958;2023-04-09T15:44:24;12.70;99.90
3202;DHT22;34843;48.744;8.958;2023-04-09T15:46:50;12.60;99.90
3202;DHT22;34843;48.744;8.958;2023-04-09T15:49:16;12.50;99.90
3202;DHT22;34843;48.744;8.958;2023-04-09T15:51:42;12.30;99.90
3202;DHT22;34843;48.744;8.958;2023-04-09T15:54:07;12.30;99.90
3202;DHT22;34843;48.744;8.958;2023-04-09T15:56:33;12.20;99.90
3202;DHT22;34843;48.744;8.958;2023-04-09T15:59:00;12.20;99.90
3202;DHT22;34843;48.744;8.958;2023-04-09T16:01:32;12.10;99.90